Bookmark and Share
Track history (hours):
 

Jarl

Last reported at 2014-Apr-17 10:33 UTC. Time now 2014-Apr-18 08:09 UTC.
Position N 59°21' E 018°09'.

Length 13 m.

Type: Port tender. MMSI: 265671980.

NotesDate/timePositionNaut miles runAvg speedWind from/ knotsBaromVisibWave heightAir tempDewpointWater temp
2014-Apr-17 10:33N 59°21' E 018°09'2 2.1
2014-Apr-17 09:33N 59°19' E 018°06'0 0.3
2014-Apr-17 08:31N 59°19' E 018°05'0 0.2
2014-Apr-17 07:33N 59°19' E 018°05'0 0.0
2014-Apr-17 06:33N 59°19' E 018°05'2 2.0
2014-Apr-17 05:32N 59°19' E 018°09'2 0.1
2014-Apr-16 12:33N 59°21' E 018°08'0 0.3
2014-Apr-16 11:27N 59°21' E 018°07'0 0.4
2014-Apr-16 10:27N 59°21' E 018°07'0 0.0
2014-Apr-16 09:04N 59°21' E 018°07'0 0.0
2014-Apr-16 07:25N 59°21' E 018°07'0 0.2
2014-Apr-16 06:31N 59°21' E 018°07'0 0.3
2014-Apr-16 05:28N 59°21' E 018°08'3 0.2
2014-Apr-15 12:33N 59°22' E 018°04'2 2.4
2014-Apr-15 11:32N 59°24' E 018°00'0 0.3
2014-Apr-15 10:31N 59°24' E 018°01'0 0.0
2014-Apr-15 09:34N 59°24' E 018°01'0 0.1
2014-Apr-15 08:33N 59°24' E 018°01'0 0.5
2014-Apr-15 07:33N 59°24' E 018°01'2 1.6
2014-Apr-15 06:33N 59°22' E 018°03'4 0.2
2014-Apr-14 10:33N 59°19' E 018°09'1 1.3
2014-Apr-14 09:33N 59°19' E 018°07'2 0.8
2014-Apr-14 07:33N 59°21' E 018°08'0 0.2
2014-Apr-14 06:33N 59°21' E 018°07'0 0.2
2014-Apr-14 05:29N 59°21' E 018°08'1 0.1
2014-Apr-13 18:33N 59°19' E 018°08'1 1.3
2014-Apr-13 17:33N 59°20' E 018°09'3 0.1
2014-Apr-12 06:34N 59°22' E 018°03'0 0.0
2014-Apr-11 11:15N 59°22' E 018°03'0 0.0
2014-Apr-11 10:15N 59°22' E 018°03'0 0.0
2014-Apr-11 09:33N 59°22' E 018°03'0 0.0
2014-Apr-11 08:33N 59°22' E 018°03'0 0.0
2014-Apr-11 07:27N 59°22' E 018°03'0 0.0
2014-Apr-11 06:05N 59°22' E 018°03'2 3.1
2014-Apr-11 05:28N 59°21' E 018°07'1 0.1
2014-Apr-10 12:32N 59°21' E 018°08'1 0.6
2014-Apr-10 10:31N 59°20' E 018°09'3 2.7
2014-Apr-10 09:31N 59°18' E 018°05'2 2.3
2014-Apr-10 08:33N 59°19' E 018°01'1 0.6
2014-Apr-10 07:31N 59°20' E 018°03'0 0.0
2014-Apr-10 06:31N 59°20' E 018°03'0 0.0
2014-Apr-10 05:31N 59°20' E 018°03'0 0.0
2014-Apr-09 12:33N 59°20' E 018°02'1 0.5
2014-Apr-09 11:31N 59°19' E 018°01'0 0.1
2014-Apr-09 10:33N 59°19' E 018°02'1 1.0
2014-Apr-09 09:33N 59°20' E 018°03'  

Dump ship's entire track history

sailing weather and tide predictions

Jarl — SFB6983 — position and weather